Kezdőlap
METAR-TAF:

METAR-TAF

Repülőterek :

Yamagata, Japán

földrajzi szélesség: 38-25N, földrajzi hosszúság: 140-22E, magasság: 105 m

Jelenlegi meteorológiai megfigyelések

A jelentés 2 órával és 25 perccel ezelõtt készült, 10:00 UTC
Különbözõ irányokból fújó szél 4 kt
Hőmérséklet 3°C
Páratartalom 70%
Légköri nyomás 1026 hPa
Látótávolság 10 km, vagy több
Kevés felhő 2500 lábon
Szórványos felhőzet 4500 lábon

METAR: RJSC 281000Z VRB04KT 9999 FEW025 SCT045 03/M02 Q1026

Idő: 21:25 (12:25 UTC)


TAF: hiányzik

Meteorológiai megfigyelések és előrejelzések több, mint 4000 repülőtéren (METAR és TAF jelentéseket).

A térképen piros és sárga pontok jelzik az elérhető meteorológiai állomásokat.

Mozgassa az egeret a pont fölött, hogy megjelenjen az állomás neve.

Azután kattintson az időjárási megfigyelések és előrejelzések megtekintéséhez.

A térkép megváltoztatása: kattintson a fekete keresztel jelölt zöld gombra ráközelítéshez, a vonallal jelölt zöld gombra távolításhoz, vagy a zöld nyilakra a szomszédos térképek eléréséhez.


METAR-TAF: